Terminal Aerodrome Forecast
Issued by NWS Quad Cities IA IL

Home | Current Version | Previous Version | Text Only | Print | Product List | Glossary On
Versions: 1 2 3 4 5 6 7 8 9 10 11 12 13 14 15 16
000
FTUS43 KDVN 212300
TAFDBQ
TAF
KDBQ 212331Z 2200/2224 17010KT P6SM SCT250
     FM221300 19012KT P6SM SCT070 BKN150
     FM222200 24011KT P6SM VCSH SCT050 BKN120=

USA.gov is the U.S. government's official web portal to all federal, state and local government web resources and services.